Orbital elements of FENGYUN 1C DEB
| Launched | 9 May 1999 |
| Flight ended | – |
| Launch site | Taiyuan Space Center, PRC |
| Owner | People's Republic of China |
| NORAD ID | 30398 |
| Date fetched |
Epoch osculation |
Inc. [°] |
Ecc. | RA asc node [hr] |
Arg Peri. [°] |
Mean anom [°] |
Mean motion [rev/day] |
Abs. mag |
| Date fetched |
Epoch osculation |
Inc. [°] |
Ecc. | RA asc node [hr] |
Arg Peri. [°] |
Mean anom [°] |
Mean motion [rev/day] |
Abs. mag |
| 2026 May 03 17:57 | 2026 Apr 30 13:59:55 | 99.7066 | 0.01722 | 1.6984 | 294.1391 | 185.2195 | 13.78842 | – |
| 2026 May 02 17:57 | 2026 Apr 30 13:59:55 | 99.7066 | 0.01722 | 1.6984 | 294.1391 | 185.2195 | 13.78842 | – |
| 2026 May 01 17:56 | 2026 Apr 30 13:59:55 | 99.7066 | 0.01722 | 1.6984 | 294.1391 | 185.2195 | 13.78842 | – |
| 2026 Apr 30 17:56 | 2026 Apr 30 13:59:55 | 99.7066 | 0.01722 | 1.6984 | 294.1391 | 185.2195 | 13.78842 | – |
| 2026 Apr 29 17:57 | 2026 Apr 23 14:47:48 | 99.7067 | 0.01725 | 1.2228 | 312.3624 | 185.2195 | 13.78842 | – |
| 2026 Apr 28 17:56 | 2026 Apr 23 14:47:48 | 99.7067 | 0.01725 | 1.2228 | 312.3624 | 185.2195 | 13.78842 | – |
| 2026 Apr 27 17:58 | 2026 Apr 23 14:47:48 | 99.7067 | 0.01725 | 1.2228 | 312.3624 | 185.2195 | 13.78842 | – |
| 2026 Apr 26 17:58 | 2026 Apr 23 14:47:48 | 99.7067 | 0.01725 | 1.2228 | 312.3624 | 185.2195 | 13.78842 | – |
| 2026 Apr 25 17:58 | 2026 Apr 23 14:47:48 | 99.7067 | 0.01725 | 1.2228 | 312.3624 | 185.2195 | 13.78842 | – |
| 2026 Apr 24 17:59 | 2026 Apr 23 14:47:48 | 99.7067 | 0.01725 | 1.2228 | 312.3624 | 185.2195 | 13.78842 | – |
| 2026 Apr 23 17:57 | 2026 Apr 18 11:27:38 | 99.7072 | 0.01728 | 0.8721 | 325.7767 | 185.2195 | 13.78842 | – |
| 2026 Apr 22 17:57 | 2026 Apr 18 11:27:38 | 99.7072 | 0.01728 | 0.8721 | 325.7767 | 185.2195 | 13.78842 | – |
| 2026 Apr 21 17:57 | 2026 Apr 18 11:27:38 | 99.7072 | 0.01728 | 0.8721 | 325.7767 | 185.2195 | 13.78842 | – |
| 2026 Apr 20 17:57 | 2026 Apr 18 11:27:38 | 99.7072 | 0.01728 | 0.8721 | 325.7767 | 185.2195 | 13.78842 | – |
| 2026 Apr 19 17:58 | 2026 Apr 18 11:27:38 | 99.7072 | 0.01728 | 0.8721 | 325.7767 | 185.2195 | 13.78842 | – |
| 2026 Apr 18 17:56 | 2026 Apr 13 00:02:55 | 99.7074 | 0.01731 | 0.4983 | 340.0390 | 185.2195 | 13.78842 | – |
| 2026 Apr 16 17:57 | 2026 Apr 13 00:02:55 | 99.7074 | 0.01731 | 0.4983 | 340.0390 | 185.2195 | 13.78842 | – |
| 2026 Apr 14 17:57 | 2026 Apr 13 00:02:55 | 99.7074 | 0.01731 | 0.4983 | 340.0390 | 185.2195 | 13.78842 | – |
| 2026 Apr 13 17:57 | 2026 Apr 13 00:02:55 | 99.7074 | 0.01731 | 0.4983 | 340.0390 | 185.2195 | 13.78842 | – |
| 2026 Apr 12 17:57 | 2026 Apr 07 23:53:53 | 99.7078 | 0.01734 | 0.1566 | 353.0630 | 185.2195 | 13.78842 | – |
| 2026 Apr 11 17:57 | 2026 Apr 07 23:53:53 | 99.7078 | 0.01734 | 0.1566 | 353.0630 | 185.2195 | 13.78842 | – |
| 2026 Apr 10 17:58 | 2026 Apr 07 23:53:53 | 99.7078 | 0.01734 | 0.1566 | 353.0630 | 185.2195 | 13.78842 | – |
| 2026 Apr 09 18:01 | 2026 Apr 07 23:53:53 | 99.7078 | 0.01734 | 0.1566 | 353.0630 | 185.2195 | 13.78842 | – |
| 2026 Apr 08 17:57 | 2026 Apr 07 23:53:53 | 99.7078 | 0.01734 | 0.1566 | 353.0630 | 185.2195 | 13.78842 | – |
| 2026 Apr 07 17:57 | 2026 Apr 02 05:17:08 | 99.7084 | 0.01736 | 23.7623 | 8.0669 | 185.2195 | 13.78842 | – |
| 2026 Apr 06 17:57 | 2026 Apr 02 05:17:08 | 99.7084 | 0.01736 | 23.7623 | 8.0669 | 185.2195 | 13.78842 | – |